Time;durP1;ratioP1;P1;durP2;ratioP2;P2;SDS_P1;SDS_P2;PMS_P1;PMS_P2;Temp;Humidity;BMP_temperature;BMP_pressure;BME280_temperature;BME280_humidity;BME280_pressure;Samples;Min_cycle;Max_cycle;Signal;HPM_P1;HPM_P2
2021/09/02 00:02:00;;;;;;;14.98;8.85;;;15.40;99.90;;;;;;2617141;54;20152;-42
2021/09/02 00:04:29;;;;;;;16.52;9.05;;;15.30;99.90;;;;;;2616871;54;20169;-41
2021/09/02 00:06:59;;;;;;;11.23;8.80;;;15.30;99.90;;;;;;2617535;39;20566;-41
2021/09/02 00:09:28;;;;;;;12.52;9.02;;;15.50;99.90;;;;;;2617159;54;20675;-40
2021/09/02 00:11:57;;;;;;;12.52;8.45;;;15.40;99.90;;;;;;2617036;54;20133;-42
2021/09/02 00:14:30;;;;;;;13.90;10.10;;;15.50;99.90;;;;;;2616698;47;20181;-41
2021/09/02 00:16:58;;;;;;;16.27;8.68;;;15.50;99.90;;;;;;2617043;54;20149;-42
2021/09/02 00:19:27;;;;;;;10.75;8.27;;;15.50;99.90;;;;;;2617103;54;20149;-42
2021/09/02 00:21:56;;;;;;;14.02;9.32;;;15.70;99.90;;;;;;2617024;54;20145;-41
2021/09/02 00:24:24;;;;;;;18.33;9.27;;;15.60;99.90;;;;;;2616572;54;20173;-41
2021/09/02 00:26:53;;;;;;;18.50;9.70;;;15.60;99.90;;;;;;2617071;54;20149;-42
2021/09/02 00:29:22;;;;;;;12.80;9.60;;;15.60;99.90;;;;;;2616406;54;20142;-41
2021/09/02 00:31:54;;;;;;;13.60;8.48;;;15.60;99.90;;;;;;2617049;54;20149;-41
2021/09/02 00:34:22;;;;;;;11.85;9.27;;;15.40;99.90;;;;;;2616831;54;20203;-41
2021/09/02 00:36:51;;;;;;;17.58;10.20;;;15.40;99.90;;;;;;2617022;54;20145;-42
2021/09/02 00:39:20;;;;;;;13.35;10.27;;;15.20;99.90;;;;;;2617355;39;20294;-41
2021/09/02 00:41:49;;;;;;;19.83;10.68;;;15.30;99.90;;;;;;2617076;54;20146;-43
2021/09/02 00:44:36;;;;;;;13.95;9.77;;;15.20;99.90;;;;;;2616618;54;20184;-43
2021/09/02 00:47:08;;;;;;;15.20;10.43;;;15.30;99.90;;;;;;2617150;54;20144;-41
2021/09/02 00:49:37;;;;;;;16.60;9.70;;;15.10;99.90;;;;;;2617210;46;20157;-43
2021/09/02 00:52:11;;;;;;;22.90;11.23;;;15.00;99.90;;;;;;2617029;54;20693;-41
2021/09/02 00:54:40;;;;;;;22.48;10.75;;;15.10;99.90;;;;;;2616652;54;20153;-41
2021/09/02 00:57:10;;;;;;;14.43;10.23;;;15.20;99.90;;;;;;2616998;54;20141;-41
2021/09/02 00:59:39;;;;;;;16.80;10.80;;;15.10;99.90;;;;;;2616950;54;20145;-41
2021/09/02 01:02:11;;;;;;;16.02;9.48;;;14.90;99.90;;;;;;2616589;54;20157;-41
2021/09/02 01:04:40;;;;;;;13.93;10.38;;;14.70;99.90;;;;;;2616725;54;20152;-41
2021/09/02 01:07:10;;;;;;;14.02;9.60;;;14.70;99.90;;;;;;2616883;54;20214;-42
2021/09/02 01:09:39;;;;;;;12.60;9.70;;;14.50;99.90;;;;;;2617374;39;20588;-41
2021/09/02 01:12:33;;;;;;;16.88;11.05;;;14.70;99.90;;;;;;2616507;54;20145;-41
2021/09/02 01:15:03;;;;;;;16.42;11.05;;;14.60;99.90;;;;;;2616741;54;20160;-42
2021/09/02 01:17:35;;;;;;;13.00;9.25;;;14.60;99.90;;;;;;2616830;54;20154;-41
2021/09/02 01:20:05;;;;;;;12.65;9.82;;;14.60;99.90;;;;;;2617292;39;20573;-42
2021/09/02 01:22:34;;;;;;;11.52;10.32;;;14.70;99.90;;;;;;2616525;54;20177;-42
2021/09/02 01:25:10;;;;;;;16.73;9.38;;;14.70;99.90;;;;;;2616599;54;20150;-42
2021/09/02 01:27:40;;;;;;;14.63;9.77;;;14.70;99.90;;;;;;2616784;54;20137;-41
2021/09/02 01:30:13;;;;;;;34.85;12.02;;;14.70;99.90;;;;;;2616874;54;20176;-41
2021/09/02 01:32:44;;;;;;;16.20;9.43;;;14.70;99.90;;;;;;2616773;39;20465;-42
2021/09/02 01:35:14;;;;;;;18.08;11.10;;;14.60;99.90;;;;;;2616626;54;20158;-41
2021/09/02 01:37:46;;;;;;;16.20;10.85;;;14.50;99.90;;;;;;2616798;54;20149;-41
2021/09/02 01:40:20;;;;;;;18.13;11.30;;;14.40;99.90;;;;;;2617229;54;20168;-41
2021/09/02 01:42:50;;;;;;;16.83;10.88;;;14.30;99.90;;;;;;2616817;54;20169;-41
2021/09/02 01:45:19;;;;;;;16.95;10.65;;;14.30;99.90;;;;;;2616616;54;20156;-42
2021/09/02 01:47:49;;;;;;;13.95;10.27;;;14.10;99.90;;;;;;2616844;54;20528;-41
2021/09/02 01:50:21;;;;;;;13.90;9.68;;;14.10;99.90;;;;;;2616782;54;20718;-41
2021/09/02 01:52:52;;;;;;;12.35;9.52;;;14.00;99.90;;;;;;2616556;54;20169;-41
2021/09/02 01:55:25;;;;;;;15.07;11.05;;;14.10;99.90;;;;;;2616525;54;20156;-41
2021/09/02 01:57:54;;;;;;;13.30;9.52;;;14.20;99.90;;;;;;2616664;54;20145;-41
2021/09/02 02:00:24;;;;;;;15.35;10.98;;;14.30;99.90;;;;;;2616792;47;20152;-41
2021/09/02 02:02:53;;;;;;;18.80;10.88;;;14.30;99.90;;;;;;2616651;54;20160;-42
2021/09/02 02:05:23;;;;;;;20.60;12.07;;;14.50;99.90;;;;;;2616637;54;20140;-42
2021/09/02 02:07:51;;;;;;;12.43;10.27;;;14.60;99.90;;;;;;2616818;54;20145;-41
2021/09/02 02:10:26;;;;;;;16.75;10.57;;;14.70;99.90;;;;;;2616704;54;20152;-42
2021/09/02 02:12:56;;;;;;;17.02;11.57;;;14.80;99.90;;;;;;2613819;54;20256;-41
2021/09/02 02:15:25;;;;;;;14.25;10.73;;;14.80;99.90;;;;;;2616423;47;20157;-42
2021/09/02 02:17:54;;;;;;;15.38;11.02;;;14.70;99.90;;;;;;2616626;54;20137;-41
2021/09/02 02:20:23;;;;;;;17.45;11.05;;;14.90;99.90;;;;;;2616679;54;20153;-42
2021/09/02 02:22:52;;;;;;;18.35;10.75;;;14.70;99.90;;;;;;2616308;54;20173;-42
2021/09/02 02:25:23;;;;;;;14.15;10.77;;;14.80;99.90;;;;;;2616057;54;20703;-41
2021/09/02 02:27:52;;;;;;;14.93;10.98;;;14.80;99.90;;;;;;2616791;54;20150;-41
2021/09/02 02:30:24;;;;;;;16.65;11.05;;;14.90;99.90;;;;;;2617162;39;20567;-42
2021/09/02 02:32:53;;;;;;;14.63;9.90;;;14.80;99.90;;;;;;2616909;39;20570;-41
2021/09/02 02:35:23;;;;;;;15.90;11.05;;;14.90;99.90;;;;;;2616596;54;20149;-41
2021/09/02 02:37:52;;;;;;;14.63;11.68;;;14.90;99.90;;;;;;2616628;54;20149;-41
2021/09/02 02:40:24;;;;;;;18.83;10.32;;;14.90;99.90;;;;;;2616772;51;20138;-41
2021/09/02 02:42:53;;;;;;;14.77;10.70;;;14.80;99.90;;;;;;2616464;54;20184;-41
2021/09/02 02:45:22;;;;;;;14.35;11.15;;;14.80;99.90;;;;;;2616388;54;20682;-41
2021/09/02 02:47:51;;;;;;;12.18;10.20;;;14.80;99.90;;;;;;2616020;54;20152;-41
2021/09/02 02:50:19;;;;;;;15.07;10.02;;;15.00;99.90;;;;;;2616484;54;20149;-41
2021/09/02 02:52:48;;;;;;;17.75;10.68;;;14.70;99.90;;;;;;2616158;54;20180;-41
2021/09/02 02:55:17;;;;;;;14.77;11.07;;;14.80;99.90;;;;;;2616301;54;20156;-42
2021/09/02 02:57:48;;;;;;;17.92;11.18;;;14.80;99.90;;;;;;2616954;39;20571;-41
2021/09/02 03:00:18;;;;;;;14.00;11.27;;;14.90;99.90;;;;;;2615895;54;20146;-41
2021/09/02 03:02:47;;;;;;;17.63;11.02;;;15.00;99.90;;;;;;2616291;54;20177;-41
2021/09/02 03:05:16;;;;;;;13.55;10.77;;;15.10;99.90;;;;;;2616385;39;20506;-41
2021/09/02 03:07:44;;;;;;;16.55;11.23;;;15.20;99.90;;;;;;2616714;54;20164;-42
2021/09/02 03:10:13;;;;;;;13.63;10.60;;;15.30;99.90;;;;;;2616990;39;20565;-41
2021/09/02 03:12:42;;;;;;;15.20;9.98;;;15.40;99.90;;;;;;2616793;39;20598;-42
2021/09/02 03:15:14;;;;;;;15.57;10.98;;;15.40;99.90;;;;;;2617073;54;20157;-41
2021/09/02 03:17:43;;;;;;;13.00;10.40;;;15.50;99.90;;;;;;2617316;39;20559;-41
2021/09/02 03:20:12;;;;;;;16.92;11.13;;;15.20;99.90;;;;;;2616544;54;20232;-41
2021/09/02 03:22:41;;;;;;;16.05;10.70;;;15.00;99.90;;;;;;2616244;54;20184;-41
2021/09/02 03:25:11;;;;;;;13.45;11.50;;;14.90;99.90;;;;;;2616287;54;20141;-41
2021/09/02 03:27:40;;;;;;;14.75;10.85;;;15.10;99.90;;;;;;2617112;39;20562;-41
2021/09/02 03:30:13;;;;;;;16.15;11.82;;;15.20;99.90;;;;;;2616676;39;20439;-41
2021/09/02 03:32:43;;;;;;;15.68;11.75;;;15.20;99.90;;;;;;2616223;54;20715;-41
2021/09/02 03:35:12;;;;;;;14.77;10.60;;;15.20;99.90;;;;;;2617123;54;20734;-42
2021/09/02 03:37:41;;;;;;;16.20;10.65;;;15.30;99.90;;;;;;2617171;54;20141;-41
2021/09/02 03:40:11;;;;;;;16.35;10.80;;;15.30;99.90;;;;;;2617152;54;20153;-41
2021/09/02 03:42:40;;;;;;;16.38;11.52;;;15.30;99.90;;;;;;2617220;54;20173;-41
2021/09/02 03:45:10;;;;;;;14.00;9.75;;;15.50;99.90;;;;;;2616966;54;20218;-41
2021/09/02 03:47:47;;;;;;;12.48;10.63;;;15.50;99.90;;;;;;2617227;54;20150;-42
2021/09/02 03:50:16;;;;;;;17.05;11.18;;;15.60;99.90;;;;;;2617372;54;20149;-42
2021/09/02 03:52:45;;;;;;;17.92;11.35;;;15.60;99.90;;;;;;2616864;54;20181;-41
2021/09/02 03:55:14;;;;;;;15.88;11.52;;;15.60;99.90;;;;;;2616923;54;20161;-41
2021/09/02 03:57:43;;;;;;;16.60;11.80;;;15.60;99.90;;;;;;2617283;54;20142;-41
2021/09/02 04:00:14;;;;;;;16.20;12.15;;;15.60;99.90;;;;;;2617037;54;20150;-41
2021/09/02 04:02:45;;;;;;;13.80;11.07;;;15.60;99.90;;;;;;2617115;54;20173;-41
2021/09/02 04:05:14;;;;;;;13.35;10.65;;;15.60;99.90;;;;;;2616206;54;20146;-41
2021/09/02 04:07:43;;;;;;;16.23;12.45;;;15.70;99.90;;;;;;2617171;54;20142;-41
2021/09/02 04:10:13;;;;;;;22.17;11.45;;;15.80;99.90;;;;;;2617244;54;20168;-43
2021/09/02 04:12:42;;;;;;;20.05;11.77;;;15.80;99.90;;;;;;2616879;54;20183;-43
2021/09/02 04:15:12;;;;;;;13.48;11.25;;;15.70;99.90;;;;;;2617186;54;20145;-40
2021/09/02 04:17:40;;;;;;;17.65;12.27;;;15.80;99.90;;;;;;2617438;54;20679;-41
2021/09/02 04:20:13;;;;;;;16.25;12.05;;;15.80;99.90;;;;;;2617358;54;20137;-41
2021/09/02 04:22:42;;;;;;;21.45;12.75;;;15.80;99.90;;;;;;2617022;54;20172;-41
2021/09/02 04:25:12;;;;;;;20.75;13.35;;;15.80;99.90;;;;;;2616358;54;20225;-41
2021/09/02 04:27:41;;;;;;;19.05;12.20;;;15.80;99.90;;;;;;2617075;47;20544;-41
2021/09/02 04:30:13;;;;;;;19.70;12.40;;;15.80;99.90;;;;;;2616993;54;20162;-41
2021/09/02 04:32:42;;;;;;;17.55;12.65;;;15.90;99.90;;;;;;2616932;54;20177;-41
2021/09/02 04:35:14;;;;;;;16.85;11.60;;;15.90;99.90;;;;;;2617195;39;20434;-41
2021/09/02 04:37:47;;;;;;;16.13;11.70;;;15.80;99.90;;;;;;2617019;47;20192;-42
2021/09/02 04:40:17;;;;;;;20.67;11.75;;;15.80;99.90;;;;;;2617551;39;20543;-41
2021/09/02 04:42:46;;;;;;;18.60;12.55;;;15.70;99.90;;;;;;2616943;54;20177;-41
2021/09/02 04:45:15;;;;;;;19.75;12.32;;;15.80;99.90;;;;;;2616639;54;20152;-42
2021/09/02 04:47:44;;;;;;;17.55;11.70;;;15.80;99.90;;;;;;2617381;39;20566;-41
2021/09/02 04:50:16;;;;;;;17.02;11.50;;;15.80;99.90;;;;;;2617078;54;20152;-41
2021/09/02 04:52:45;;;;;;;14.80;12.30;;;15.80;99.90;;;;;;2616873;54;20220;-41
2021/09/02 04:55:14;;;;;;;16.73;11.20;;;15.80;99.90;;;;;;2616713;54;20683;-41
2021/09/02 04:57:43;;;;;;;16.25;11.52;;;15.90;99.90;;;;;;2616850;54;20145;-41
2021/09/02 05:00:13;;;;;;;15.93;12.43;;;15.80;99.90;;;;;;2616958;54;20145;-41
2021/09/02 05:02:42;;;;;;;15.27;12.60;;;15.90;99.90;;;;;;2616603;54;20180;-41
2021/09/02 05:05:11;;;;;;;18.70;11.88;;;15.90;99.90;;;;;;2616722;54;20172;-41
2021/09/02 05:07:42;;;;;;;16.95;12.55;;;15.90;99.90;;;;;;2617333;39;20570;-42
2021/09/02 05:10:13;;;;;;;18.63;13.13;;;15.90;99.90;;;;;;2617244;54;20165;-41
2021/09/02 05:12:41;;;;;;;17.50;13.27;;;15.90;99.90;;;;;;2616932;39;20602;-41
2021/09/02 05:15:10;;;;;;;19.52;13.65;;;15.80;99.90;;;;;;2616805;54;20146;-42
2021/09/02 05:17:39;;;;;;;21.63;13.52;;;15.90;99.90;;;;;;2616899;54;20150;-41
2021/09/02 05:20:09;;;;;;;20.50;15.02;;;16.00;99.90;;;;;;2617035;54;20694;-41
2021/09/02 05:22:38;;;;;;;17.55;12.23;;;15.90;99.90;;;;;;2616586;54;20177;-44
2021/09/02 05:25:10;;;;;;;19.25;12.45;;;15.70;99.90;;;;;;2617070;39;20690;-41
2021/09/02 05:27:40;;;;;;;23.02;13.45;;;15.70;99.90;;;;;;2617355;39;20547;-42
2021/09/02 05:30:12;;;;;;;15.73;12.90;;;15.50;99.90;;;;;;2617398;39;20657;-42
2021/09/02 05:32:41;;;;;;;19.25;13.20;;;15.70;99.90;;;;;;2616735;54;20195;-41
2021/09/02 05:35:11;;;;;;;15.18;12.05;;;15.70;99.90;;;;;;2616767;46;20687;-41
2021/09/02 05:37:40;;;;;;;17.00;11.70;;;15.80;99.90;;;;;;2617203;54;20133;-41
2021/09/02 05:40:13;;;;;;;20.67;13.48;;;15.70;99.90;;;;;;2616778;54;20269;-41
2021/09/02 05:42:42;;;;;;;18.02;12.90;;;15.50;99.90;;;;;;2616831;54;20177;-41
2021/09/02 05:45:12;;;;;;;22.40;12.75;;;15.60;99.90;;;;;;2616706;54;20156;-41
2021/09/02 05:47:40;;;;;;;18.45;13.25;;;15.80;99.90;;;;;;2616873;54;20145;-41
2021/09/02 05:50:10;;;;;;;17.42;13.30;;;15.90;99.90;;;;;;2616795;54;20153;-41
2021/09/02 05:52:39;;;;;;;17.00;13.00;;;16.00;99.90;;;;;;2616100;54;20224;-41
2021/09/02 05:55:12;;;;;;;24.60;13.75;;;16.10;99.90;;;;;;2616887;54;20141;-41
2021/09/02 05:57:43;;;;;;;19.60;12.80;;;16.10;99.90;;;;;;2616738;54;20164;-42
2021/09/02 06:00:13;;;;;;;17.30;12.70;;;16.10;99.90;;;;;;2617219;54;20149;-41
2021/09/02 06:02:42;;;;;;;16.55;12.27;;;16.10;99.90;;;;;;2616982;54;20252;-41
2021/09/02 06:05:12;;;;;;;19.75;13.30;;;16.10;99.90;;;;;;2616687;47;20152;-41
2021/09/02 06:07:41;;;;;;;21.60;14.35;;;15.90;99.90;;;;;;2616804;54;20153;-41
2021/09/02 06:10:13;;;;;;;18.40;13.00;;;16.00;99.90;;;;;;2616727;54;20212;-42
2021/09/02 06:12:42;;;;;;;22.95;13.07;;;16.20;99.90;;;;;;2616181;54;20176;-41
2021/09/02 06:15:12;;;;;;;20.17;14.85;;;16.20;99.90;;;;;;2616440;51;20153;-41
2021/09/02 06:17:41;;;;;;;24.10;13.35;;;16.20;99.90;;;;;;2616667;54;20157;-40
2021/09/02 06:20:11;;;;;;;22.92;15.65;;;15.70;99.90;;;;;;2616550;54;20196;-40
2021/09/02 06:22:40;;;;;;;23.50;13.70;;;15.70;99.90;;;;;;2616510;54;20176;-40
2021/09/02 06:25:13;;;;;;;23.85;14.57;;;15.70;99.90;;;;;;2616489;47;20152;-40
2021/09/02 06:27:42;;;;;;;16.13;12.65;;;15.70;99.90;;;;;;2616122;54;20205;-41
2021/09/02 06:30:12;;;;;;;18.85;13.60;;;15.60;99.90;;;;;;2616454;54;20142;-41
2021/09/02 06:32:40;;;;;;;20.73;14.65;;;15.90;99.90;;;;;;2616430;54;20284;-40
2021/09/02 06:35:10;;;;;;;18.88;12.43;;;16.10;99.90;;;;;;2616476;54;20148;-41
2021/09/02 06:37:39;;;;;;;21.77;13.60;;;16.00;99.90;;;;;;2616594;54;20145;-41
2021/09/02 06:40:12;;;;;;;18.48;12.05;;;16.10;99.90;;;;;;2616685;54;20141;-42
2021/09/02 06:42:41;;;;;;;22.02;14.00;;;16.20;99.90;;;;;;2616160;54;20175;-41
2021/09/02 06:45:11;;;;;;;20.33;12.73;;;16.40;99.90;;;;;;2615549;47;20715;-41
2021/09/02 06:47:41;;;;;;;19.05;14.32;;;16.40;99.90;;;;;;2616574;47;20146;-41
2021/09/02 06:50:11;;;;;;;17.95;13.93;;;16.10;99.90;;;;;;2616715;47;20729;-40
2021/09/02 06:52:40;;;;;;;15.77;12.20;;;15.80;99.90;;;;;;2616497;54;20276;-43
2021/09/02 06:55:13;;;;;;;17.50;12.68;;;16.00;99.90;;;;;;2616205;54;20145;-41
2021/09/02 06:57:42;;;;;;;29.83;15.32;;;16.40;99.90;;;;;;2615777;54;20888;-40
2021/09/02 07:00:13;;;;;;;20.38;13.80;;;16.10;99.90;;;;;;2615089;47;20706;-40
2021/09/02 07:02:41;;;;;;;22.13;13.30;;;16.60;99.90;;;;;;2616248;54;20157;-40
2021/09/02 07:05:12;;;;;;;22.45;13.93;;;17.10;99.90;;;;;;2616335;54;20702;-40
2021/09/02 07:07:41;;;;;;;25.48;14.25;;;17.20;99.90;;;;;;2616736;54;20153;-41
2021/09/02 07:10:13;;;;;;;20.25;12.95;;;16.80;99.90;;;;;;2617442;54;20141;-41
2021/09/02 07:12:42;;;;;;;19.88;12.48;;;16.30;99.90;;;;;;2617196;54;20180;-41
2021/09/02 07:15:11;;;;;;;22.10;14.18;;;16.50;99.90;;;;;;2617090;54;20694;-40
2021/09/02 07:17:40;;;;;;;19.65;11.88;;;16.30;99.90;;;;;;2617451;54;20141;-40
2021/09/02 07:20:10;;;;;;;20.83;13.45;;;16.40;99.90;;;;;;2617187;54;20146;-40
2021/09/02 07:22:39;;;;;;;18.95;12.82;;;16.50;99.90;;;;;;2617168;54;20183;-40
2021/09/02 07:25:09;;;;;;;21.33;13.70;;;16.40;99.90;;;;;;2617698;39;20554;-41
2021/09/02 07:27:40;;;;;;;18.77;12.98;;;16.80;99.90;;;;;;2617309;54;20145;-42
2021/09/02 07:30:10;;;;;;;17.08;11.77;;;17.10;99.90;;;;;;2617301;47;20157;-40
2021/09/02 07:32:39;;;;;;;18.05;10.75;;;17.30;99.90;;;;;;2617106;54;20173;-40
2021/09/02 07:35:09;;;;;;;15.85;10.75;;;17.50;99.90;;;;;;2617223;54;20145;-43
2021/09/02 07:37:37;;;;;;;20.40;11.05;;;17.30;99.90;;;;;;2617267;54;20158;-42
2021/09/02 07:40:07;;;;;;;16.58;10.27;;;17.50;99.90;;;;;;2617379;54;20153;-40
2021/09/02 07:42:36;;;;;;;13.43;8.82;;;17.70;99.90;;;;;;2617659;54;20180;-41
2021/09/02 07:45:10;;;;;;;15.13;9.75;;;18.10;99.90;;;;;;2617642;54;20667;-40
2021/09/02 07:47:38;;;;;;;15.68;10.27;;;17.80;99.90;;;;;;2618038;54;20176;-40
2021/09/02 07:50:09;;;;;;;13.48;9.05;;;17.70;99.90;;;;;;2617618;54;20137;-39
2021/09/02 07:52:39;;;;;;;17.85;10.73;;;17.80;99.90;;;;;;2617603;54;20662;-40
2021/09/02 07:55:08;;;;;;;11.70;9.25;;;17.90;99.90;;;;;;2617298;54;20214;-40
2021/09/02 07:57:42;;;;;;;15.70;9.45;;;18.00;99.90;;;;;;2617818;39;20566;-40
2021/09/02 08:00:15;;;;;;;16.73;11.00;;;17.90;99.90;;;;;;2617455;54;20168;-40
2021/09/02 08:02:44;;;;;;;17.42;9.40;;;18.00;99.90;;;;;;2617035;47;20670;-40
2021/09/02 08:05:14;;;;;;;14.38;9.88;;;18.30;99.90;;;;;;2617208;54;20690;-40
2021/09/02 08:07:50;;;;;;;11.70;8.82;;;18.30;99.90;;;;;;2616789;54;20141;-41
2021/09/02 08:10:20;;;;;;;12.70;8.70;;;18.30;99.90;;;;;;2617056;49;20137;-40
2021/09/02 08:12:50;;;;;;;10.40;7.50;;;18.20;99.90;;;;;;2616831;54;20177;-41
2021/09/02 08:15:23;;;;;;;14.25;7.82;;;18.10;99.90;;;;;;2617522;39;20563;-41
2021/09/02 08:17:52;;;;;;;10.88;6.97;;;18.00;99.90;;;;;;2618069;39;20574;-41
2021/09/02 08:20:22;;;;;;;10.77;7.18;;;18.10;99.90;;;;;;2617316;39;20568;-40
2021/09/02 08:22:51;;;;;;;13.25;8.02;;;18.00;99.90;;;;;;2617188;54;20172;-41
2021/09/02 08:25:20;;;;;;;9.32;7.40;;;18.00;99.90;;;;;;2616520;54;20142;-41
2021/09/02 08:27:49;;;;;;;10.63;6.90;;;18.10;99.90;;;;;;2617147;54;20150;-40
2021/09/02 08:30:23;;;;;;;21.60;11.75;;;18.20;99.90;;;;;;2617066;54;20168;-41
2021/09/02 08:32:54;;;;;;;12.32;9.82;;;18.60;99.90;;;;;;2616698;54;20168;-41
2021/09/02 08:35:25;;;;;;;12.80;10.70;;;19.10;99.90;;;;;;2617000;54;20262;-41
2021/09/02 08:37:55;;;;;;;14.35;11.43;;;19.00;99.90;;;;;;2617071;54;20145;-41
2021/09/02 08:40:27;;;;;;;19.17;12.70;;;19.10;99.90;;;;;;2617080;54;20137;-41
2021/09/02 08:42:56;;;;;;;17.38;11.43;;;19.40;99.90;;;;;;2617107;54;20165;-41
2021/09/02 08:45:30;;;;;;;16.08;12.13;;;19.10;99.90;;;;;;2616928;51;20145;-43
2021/09/02 08:48:00;;;;;;;14.27;10.82;;;19.00;99.90;;;;;;2617169;54;20134;-41
2021/09/02 08:50:31;;;;;;;13.45;10.50;;;19.20;99.90;;;;;;2617226;54;20675;-41
2021/09/02 08:53:00;;;;;;;13.65;10.57;;;18.90;99.90;;;;;;2616785;49;20180;-42
2021/09/02 08:55:29;;;;;;;12.65;10.18;;;19.20;99.90;;;;;;2616900;54;20671;-41
2021/09/02 08:57:59;;;;;;;20.60;10.32;;;19.10;99.90;;;;;;2617020;54;20176;-41
2021/09/02 09:00:33;;;;;;;16.48;10.75;;;18.80;99.90;;;;;;2617162;54;20149;-43
2021/09/02 09:03:03;;;;;;;18.15;9.60;;;18.60;99.90;;;;;;2616821;54;20172;-41
2021/09/02 09:05:34;;;;;;;14.40;10.30;;;18.30;99.90;;;;;;2616891;54;20153;-42
2021/09/02 09:08:03;;;;;;;20.38;10.52;;;18.20;99.90;;;;;;2617127;51;20141;-41
2021/09/02 09:10:32;;;;;;;13.65;9.55;;;18.00;99.90;;;;;;2616824;54;20153;-43
2021/09/02 09:13:04;;;;;;;22.67;12.13;;;18.20;99.90;;;;;;2615971;54;20153;-41
2021/09/02 09:15:38;;;;;;;15.73;11.35;;;18.40;99.90;;;;;;2616848;54;20189;-41
2021/09/02 09:18:19;;;;;;;17.88;10.90;;;18.10;99.90;;;;;;2616769;54;20149;-41
2021/09/02 09:21:06;;;;;;;17.65;10.35;;;18.40;99.90;;;;;;2615438;54;20687;-42
2021/09/02 09:23:57;;;;;;;16.30;10.85;;;18.60;99.90;;;;;;2615545;54;20196;-40
2021/09/02 09:26:27;;;;;;;21.30;10.48;;;18.80;99.90;;;;;;2616750;31;20655;-40
2021/09/02 09:28:58;;;;;;;16.38;9.27;;;18.40;99.90;;;;;;2616856;54;20146;-40
2021/09/02 09:31:32;;;;;;;17.92;9.82;;;18.40;99.90;;;;;;2616427;47;20149;-40
2021/09/02 09:34:03;;;;;;;16.13;9.75;;;18.60;99.90;;;;;;2616460;54;20156;-40
2021/09/02 09:36:33;;;;;;;15.65;10.25;;;18.80;99.90;;;;;;2616659;54;20730;-41
2021/09/02 09:39:05;;;;;;;13.68;8.40;;;18.90;99.90;;;;;;2616742;54;20150;-41
2021/09/02 09:41:35;;;;;;;14.82;10.00;;;18.70;99.90;;;;;;2616942;39;20247;-40
2021/09/02 09:44:21;;;;;;;17.90;11.02;;;18.50;99.90;;;;;;2615643;54;20150;-41
2021/09/02 09:47:15;;;;;;;11.82;9.35;;;18.40;99.90;;;;;;2616452;54;20679;-41
2021/09/02 09:49:53;;;;;;;15.15;10.20;;;18.60;99.90;;;;;;2616585;54;20718;-41
2021/09/02 09:52:28;;;;;;;12.90;9.90;;;18.50;99.90;;;;;;2616411;54;20142;-41
2021/09/02 09:55:05;;;;;;;15.07;8.88;;;18.50;99.90;;;;;;2616477;54;20152;-41
2021/09/02 09:57:35;;;;;;;11.82;8.95;;;18.70;99.90;;;;;;2616406;47;20157;-46
2021/09/02 10:00:08;;;;;;;13.65;7.95;;;18.80;99.90;;;;;;2616174;54;20148;-41
2021/09/02 10:02:47;;;;;;;13.80;8.27;;;18.70;99.90;;;;;;2616620;54;20183;-41
2021/09/02 10:05:17;;;;;;;11.10;8.88;;;18.60;99.90;;;;;;2616375;54;20142;-42
2021/09/02 10:07:47;;;;;;;10.70;9.60;;;18.50;99.90;;;;;;2616523;54;20149;-41
2021/09/02 10:10:18;;;;;;;11.20;8.77;;;18.80;99.90;;;;;;2616963;39;20574;-41
2021/09/02 10:12:49;;;;;;;14.40;9.40;;;18.60;99.90;;;;;;2616881;39;20582;-41
2021/09/02 10:15:21;;;;;;;14.35;8.23;;;19.10;99.90;;;;;;2616219;54;20141;-42
2021/09/02 10:17:55;;;;;;;12.00;8.60;;;18.90;99.90;;;;;;2617242;39;20540;-42
2021/09/02 10:20:26;;;;;;;12.18;8.18;;;19.00;99.90;;;;;;2618261;54;20675;-41
2021/09/02 10:22:58;;;;;;;20.42;10.57;;;19.30;99.90;;;;;;2619007;54;20183;-42
2021/09/02 10:25:40;;;;;;;12.15;7.85;;;19.30;99.90;;;;;;2618894;54;20149;-42
2021/09/02 10:28:12;;;;;;;11.25;8.05;;;19.40;99.90;;;;;;2619077;54;20683;-41
2021/09/02 10:30:44;;;;;;;18.35;9.02;;;19.30;99.90;;;;;;2619116;54;20168;-42
2021/09/02 10:33:46;;;;;;;13.52;9.10;;;19.50;99.90;;;;;;2618140;54;20172;-43
2021/09/02 10:36:45;;;;;;;14.25;8.55;;;19.40;99.90;;;;;;2616610;51;20148;-41
2021/09/02 10:39:32;;;;;;;10.52;8.80;;;19.60;99.90;;;;;;2616411;54;20149;-41
2021/09/02 10:42:00;;;;;;;14.23;8.77;;;20.10;99.90;;;;;;2616486;54;20156;-42
2021/09/02 10:44:50;;;;;;;9.43;7.15;;;19.70;99.90;;;;;;2616389;54;20714;-41
2021/09/02 10:47:21;;;;;;;11.35;7.15;;;19.80;99.90;;;;;;2616681;54;20153;-41
2021/09/02 10:50:03;;;;;;;15.93;9.10;;;20.50;99.90;;;;;;2616736;54;20137;-40
2021/09/02 10:52:34;;;;;;;8.43;6.90;;;20.60;99.90;;;;;;2616297;47;20349;-41
2021/09/02 10:55:32;;;;;;;8.73;7.82;;;21.00;99.90;;;;;;2616563;54;20156;-43
2021/09/02 10:58:02;;;;;;;14.15;8.25;;;21.20;99.90;;;;;;2616929;47;20678;-41
2021/09/02 11:00:35;;;;;;;11.05;6.93;;;21.30;99.90;;;;;;2616752;54;20144;-40
2021/09/02 11:03:15;;;;;;;12.95;6.72;;;21.00;99.90;;;;;;2615509;54;20169;-45
2021/09/02 11:05:45;;;;;;;12.48;7.75;;;20.90;99.90;;;;;;2616355;54;20171;-41
2021/09/02 11:08:32;;;;;;;12.80;6.22;;;21.00;99.90;;;;;;2616447;54;20141;-42
2021/09/02 11:11:11;;;;;;;13.00;7.53;;;21.10;99.90;;;;;;2616066;54;20659;-40
2021/09/02 11:13:40;;;;;;;14.80;7.13;;;21.10;99.90;;;;;;2616058;54;20169;-42
2021/09/02 11:16:09;;;;;;;9.32;6.60;;;20.90;99.90;;;;;;2616280;39;20577;-41
2021/09/02 11:18:45;;;;;;;12.45;8.93;;;20.30;99.90;;;;;;2616639;54;20172;-42
2021/09/02 11:21:15;;;;;;;9.38;7.25;;;20.40;99.90;;;;;;2616886;39;20552;-43
2021/09/02 11:23:48;;;;;;;22.95;9.02;;;20.60;99.90;;;;;;2616210;54;20172;-42
2021/09/02 11:26:32;;;;;;;11.45;6.88;;;20.50;99.90;;;;;;2616418;54;20153;-42
2021/09/02 11:29:01;;;;;;;16.88;7.78;;;20.20;99.90;;;;;;2616379;51;20162;-41
2021/09/02 11:31:31;;;;;;;13.45;8.20;;;20.10;99.90;;;;;;2616511;54;20138;-41
2021/09/02 11:34:00;;;;;;;13.07;8.18;;;19.80;99.90;;;;;;2616283;54;20172;-42
2021/09/02 11:36:29;;;;;;;115.65;42.45;;;20.20;99.90;;;;;;2616668;39;20552;-43
2021/09/02 11:39:10;;;;;;;16.02;8.98;;;20.60;99.90;;;;;;2616807;54;20145;-42
2021/09/02 11:41:39;;;;;;;8.32;6.93;;;20.60;99.90;;;;;;2616468;54;20145;-41
2021/09/02 11:44:07;;;;;;;8.90;6.60;;;20.60;99.90;;;;;;2616140;54;20304;-42
2021/09/02 11:46:40;;;;;;;17.17;7.55;;;20.60;99.90;;;;;;2616151;54;20146;-42
2021/09/02 11:49:08;;;;;;;15.15;7.45;;;20.50;99.90;;;;;;2616408;54;20145;-42
2021/09/02 11:51:37;;;;;;;13.38;7.32;;;20.60;99.90;;;;;;2616883;39;20574;-41
2021/09/02 11:54:10;;;;;;;15.75;7.60;;;20.50;99.90;;;;;;2616467;54;20690;-41
2021/09/02 11:56:41;;;;;;;10.38;7.78;;;20.70;99.90;;;;;;2618330;39;20567;-41
2021/09/02 11:59:11;;;;;;;10.10;6.13;;;20.70;99.90;;;;;;2616888;54;20654;-41
2021/09/02 12:01:44;;;;;;;13.13;8.05;;;21.30;99.90;;;;;;2616950;54;20145;-41
2021/09/02 12:04:21;;;;;;;10.07;7.18;;;21.50;99.90;;;;;;2617036;51;20710;-42
2021/09/02 16:12:00;;;;;;;5.60;4.32;;;21.50;99.90;;;;;;2619918;31;20441;31
2021/09/02 16:17:33;;;;;;;8.10;5.18;;;26.10;99.90;;;;;;2628512;54;20204;-81
2021/09/02 16:23:14;;;;;;;6.18;4.32;;;25.70;99.90;;;;;;2631681;54;20148;-82
2021/09/02 16:33:41;;;;;;;7.53;4.63;;;26.00;99.90;;;;;;2629678;47;20165;31
2021/09/02 16:36:25;;;;;;;5.85;4.03;;;26.70;99.90;;;;;;2631586;54;20173;-81
2021/09/02 16:41:36;;;;;;;6.13;3.90;;;27.10;99.90;;;;;;2605306;39;20472;31
2021/09/02 16:44:09;;;;;;;6.07;4.20;;;26.30;99.90;;;;;;2602344;46;21138;31
2021/09/02 16:54:21;;;;;;;6.97;4.60;;;25.30;99.90;;;;;;2603275;54;20196;31
2021/09/02 16:56:53;;;;;;;7.53;3.97;;;25.00;99.90;;;;;;2603174;54;21192;31
2021/09/02 17:01:54;;;;;;;7.50;4.13;;;25.30;99.90;;;;;;2603189;46;20190;31
2021/09/02 17:04:27;;;;;;;9.17;4.63;;;25.00;99.90;;;;;;2614967;39;21029;31
2021/09/02 17:09:31;;;;;;;7.30;4.70;;;24.50;99.90;;;;;;2602429;46;21506;31
2021/09/02 17:12:07;;;;;;;6.45;4.40;;;24.40;99.90;;;;;;2602509;47;21006;31
2021/09/02 17:17:06;;;;;;;4.80;3.65;;;24.00;99.90;;;;;;2605467;31;20520;31
2021/09/02 17:19:39;;;;;;;22.50;11.80;;;23.80;99.90;;;;;;2615869;39;20853;31
2021/09/02 17:27:17;;;;;;;214.70;96.90;;;23.10;99.90;;;;;;2601733;54;20207;31
2021/09/02 17:32:22;;;;;;;69.13;30.25;;;22.80;99.90;;;;;;2601785;46;21614;31
2021/09/02 17:34:53;;;;;;;59.95;28.85;;;22.70;99.90;;;;;;2601460;54;21440;31
2021/09/02 17:39:58;;;;;;;26.55;15.82;;;22.50;99.90;;;;;;2607746;39;20623;31